首页
METAR-TAF:

METAR-TAF

机场 :

Sawyer County Airport

Hayward, 威斯康辛州, 美国

纬度: 46-01-14N, 经度: 091-27-01W, 海拔: 370米

当前天气观测

该预报发布于37分钟前的23:53 UTC
风速10节,风向
温度 -1°C
湿度 74%
气压 1012 hPa
能見度: 16.1公里
天空无云

METAR: KHYR 072353Z AUTO 18010KT 10SM CLR M01/M05 A2987 RMK AO2 SLP132 T10061050 10006 21028 58026

时间: 18:30 (00:30 UTC)

预报

该预报发布于50分钟前的23:40 UTC
预报有效从08日的 00点(UTC)到 08日的 24点(UTC)
风速10节,风向
能見度: 10公里
阴天层高于15000英尺
从 08日的 0800点(UTC)
风速12节,风向南转西南,有时为18节阵风
能見度: 10公里
阴天层高于1500英尺
从 08日的 1100点(UTC)
风速7节,风向西转西南
能見度: 10公里
阴天层高于900英尺
从 08日的 2100点(UTC)
风速5节,风向
能見度: 10公里
阴天层高于1100英尺

TAF: KHYR 072340Z 0800/0824 18010KT P6SM OVC150 WS020/21045KT FM080800 21012G18KT P6SM OVC015 FM081100 24007KT P6SM OVC009 FM082100 09005KT P6SM OVC011

超过4000个机场的气象观测和天气预报(METAR&TAF报告)。

可查询的气象台以黄色和红色小点在地图上表示。

将鼠标移到小点上方,可查看气象台名称。

然后点击查看天气观测和预报。

如需切换地图:点击带黑十字的绿色按钮放大地图;点击带横线的绿色按钮缩小地图;或者点击绿色箭头查看邻近地区的地图。


METAR-TAF: